Weather observations for the past three days for
Buffalo, Buffalo Municipal Airport
Metric (Imperial)
Date Time (cdt) Wind (kph) Vis. (km) Weather Sky Cond. Temperature (ºC) Relative Humidity Wind Chill (°C) Heat Index (°C) Pressure Precipitation (cm)
Air Dwpt 6 hour altimeter (cm) sea level (mb) 1 hr 3 hr 6 hr
Max. Min.
10 10:55 N 19 16.09 Partly Cloudy SCT085 11 -2 41% 76.56 0.0
10 10:35 NW 22 16.09 Mostly Cloudy BKN085 11 -2 41% 76.53 0.0
10 10:15 N 15 16.09 Mostly Cloudy BKN085 10 -2 43% 8 76.56 0.0
10 09:55 N 20 16.09 Mostly Cloudy BKN090 10 -1 47% 8 76.53 0.0
10 09:35 N 22 16.09 Overcast OVC090 10 -2 43% 7 76.53 0.0
10 09:15 N 20 G 30 16.09 Mostly Cloudy FEW070 BKN090 10 -1 47% 8 76.5 0.0
10 08:55 N 17 G 26 16.09 Mostly Cloudy SCT075 BKN095 9 -1 50% 7 76.5 0.0
10 08:35 N 17 16.09 Overcast BKN075 OVC090 8 -1 53% 6 76.5 0.0
10 08:15 N 19 16.09 Overcast BKN075 OVC100 8 -1 53% 5 76.5 0.0
10 07:55 N 7 16.09 Mostly Cloudy FEW060 BKN075 BKN100 8 -1 53% 7 76.48 0.0
10 07:35 N 7 16.09 Mostly Cloudy BKN075 BKN095 7 -1 57% 6 76.45 0.0
10 07:15 Calm 16.09 Overcast OVC095 7 -1 57% 76.45 0.0
10 06:55 Calm 16.09 Overcast OVC100 6 -1 61% 76.43 0.0
10 06:35 N 7 16.09 Overcast OVC100 6 -2 57% 5 76.4 0.0
10 06:15 N 11 16.09 Overcast FEW070 OVC100 5 0 70% 3 76.4 0.0
10 05:55 NW 7 16.09 Overcast OVC095 5 0 70% 4 76.38 0.0
10 05:35 Calm 16.09 Overcast FEW070 SCT080 OVC090 3 -1 75% 76.35 0.0
10 05:15 Calm 16.09 Overcast FEW080 OVC090 3 -1 75% 76.33 0.0
10 04:55 Calm 16.09 Overcast FEW080 OVC090 2 -1 81% 76.3 0.0
10 04:35 Calm 16.09 Overcast FEW080 OVC090 2 -1 81% 76.3 0.0
10 04:15 Calm 16.09 Mostly Cloudy BKN090 2 -2 75% 76.28 0.0
10 03:55 Calm 16.09 Mostly Cloudy FEW035 SCT075 BKN090 2 -2 75% 76.25 0.0
10 03:35 Calm 16.09 Overcast SCT080 OVC090 3 -2 70% 76.25 0.0
10 03:15 Calm 16.09 Overcast OVC085 2 -2 75% 76.23 0.0
10 02:55 Calm 16.09 Overcast SCT080 OVC090 3 -2 70% 76.2 0.0
10 02:35 SW 6 16.09 Overcast SCT075 OVC090 3 -2 70% 76.2 0.0
10 02:15 Calm 16.09 Overcast FEW036 SCT075 OVC090 2 -1 81% 76.2 0.0
10 01:55 Calm 16.09 Mostly Cloudy FEW033 SCT038 BKN085 2 -3 70% 76.2 0.0
10 01:35 Calm 16.09 Mostly Cloudy SCT036 SCT042 BKN090 4 -1 70% 76.2 0.0
10 01:15 Calm 16.09 Overcast OVC090 4 -2 65% 76.2 0.0
10 00:55 Calm 16.09 Overcast FEW075 OVC090 6 -2 57% 76.2 0.0
10 00:35 Calm 16.09 Overcast BKN075 OVC090 7 -3 49% 76.17 0.0
10 00:15 Calm 16.09 Overcast BKN075 OVC085 8 -4 43% 76.17 0.0
09 23:55 Calm 16.09 Overcast BKN075 OVC085 8 -4 43% 76.17 0.0
09 23:35 Calm 16.09 Overcast BKN075 OVC085 8 -4 43% 76.17 0.0
09 23:15 Calm 16.09 Overcast OVC080 7 -4 46% 76.17 0.0
09 22:55 Calm 16.09 Mostly Cloudy FEW038 FEW049 BKN080 8 -5 40% 76.15 0.0
09 22:35 NW 9 16.09 Mostly Cloudy SCT043 BKN050 BKN060 9 -5 37% 8 76.15 0.0
09 22:15 NW 11 16.09 Mostly Cloudy FEW037 SCT044 BKN050 10 -5 35% 9 76.12 0.0
09 21:55 NW 13 16.09 Mostly Cloudy FEW037 BKN045 BKN050 10 -5 35% 8 76.12 0.0
09 21:35 NW 15 16.09 Mostly Cloudy FEW039 SCT055 BKN085 11 -5 32% 76.07 0.0
09 21:15 NW 15 16.09 Partly Cloudy FEW055 SCT090 11 -5 32% 76.05 0.0
09 20:55 NW 13 G 28 16.09 Fair CLR 11 -6 30% 76.02 0.0
09 20:35 NW 19 16.09 Fair CLR 12 -5 30% 76 0.0
09 20:15 NW 19 16.09 Fair CLR 12 -5 30% 75.95 0.0
09 19:55 NW 20 G 37 16.09 Partly Cloudy SCT080 13 -6 26% 75.95 0.0
09 19:35 NW 26 G 41 16.09 Partly Cloudy SCT080 13 -5 28% 75.92 0.0
09 19:15 NW 24 G 37 16.09 Fair CLR 14 -6 25% 75.9 0.0
09 18:55 NW 26 G 37 16.09 Fair CLR 14 -5 27% 75.9 0.0
09 18:35 NW 24 G 43 16.09 Partly Cloudy SCT080 14 -5 27% 75.87 0.0
09 18:15 NW 31 16.09 Partly Cloudy SCT080 14 -5 27% 75.84 0.0
09 17:55 NW 28 G 41 16.09 A Few Clouds FEW080 15 -5 25% 75.84 0.0
09 17:35 NW 28 16.09 A Few Clouds FEW080 15 -5 25% 75.82 0.0
09 17:15 N 30 16.09 A Few Clouds FEW080 15 -5 25% 75.82 0.0
09 16:55 NW 26 16.09 Fair CLR 15 -5 25% 75.82 0.0
09 16:35 NW 26 G 43 16.09 Fair CLR 15 -5 25% 75.82 0.0
09 16:15 N 28 G 37 16.09 Fair CLR 15 -5 25% 75.79 0.0
09 15:55 N 30 G 65 16.09 Fair CLR 15 -4 27% 75.77 0.0
09 15:35 NW 22 G 41 16.09 Fair CLR 15 -4 27% 75.77 0.0
09 15:15 NW 33 G 44 16.09 Fair and Breezy CLR 14 -5 27% 75.77 0.0
09 14:55 N 30 G 43 16.09 Fair CLR 15 -4 27% 75.77 0.0
09 14:35 N 26 G 39 16.09 Fair CLR 15 -5 25% 75.74 0.0
09 14:15 N 26 G 39 16.09 Fair CLR 14 -4 29% 75.74 0.0
09 13:55 N 37 16.09 Fair and Breezy CLR 15 -4 27% 75.74 0.0
09 13:35 N 28 G 50 16.09 Fair CLR 14 -4 29% 75.74 0.0
09 13:15 NW 26 G 43 16.09 Fair CLR 14 -3 31% 75.72 0.0
09 12:55 N 31 16.09 Fair CLR 14 -3 31% 75.72 0.0
09 12:35 NW 28 G 43 16.09 Fair CLR 13 -3 33% 75.69 0.0
09 12:15 NW 24 G 43 16.09 Fair CLR 13 -3 33% 75.69 0.0
09 11:55 NW 28 16.09 A Few Clouds FEW055 13 -2 36% 75.67 0.0
09 11:35 N 30 16.09 A Few Clouds FEW050 13 -2 36% 75.67 0.0
09 11:15 N 24 G 44 16.09 A Few Clouds FEW050 12 -2 38% 75.64 0.0
09 10:55 N 35 G 46 16.09 A Few Clouds and Breezy FEW050 13 -1 38% 75.64 0.0
09 10:35 NW 28 G 41 16.09 Fair CLR 12 -2 38% 75.62 0.0
09 10:15 N 24 G 37 16.09 Fair CLR 12 0 44% 75.59 0.0
09 09:55 N 28 G 41 16.09 Fair CLR 12 -1 41% 75.57 0.0
09 09:35 N 24 G 33 16.09 Fair CLR 11 1 50% 75.54 0.0
09 09:15 N 26 G 41 16.09 Fair CLR 11 1 50% 75.54 0.0
09 08:55 N 26 G 35 16.09 Fair CLR 11 2 54% 75.51 0.0
09 08:35 N 28 G 37 16.09 Fair CLR 10 3 62% 7 75.49 0.0
09 08:15 NW 26 16.09 Fair CLR 10 4 67% 7 75.49 0.0
09 07:55 N 20 16.09 Fair CLR 10 5 71% 8 75.44 0.0
09 07:35 N 17 16.09 Partly Cloudy SCT017 SCT022 SCT044 9 5 76% 7 75.41 0.0
09 07:15 NW 28 16.09 Overcast BKN019 BKN025 OVC042 9 6 82% 6 75.39 0.0
09 06:55 NW 19 G 31 16.09 Mostly Cloudy BKN021 BKN026 9 6 82% 7 75.39 0.0
09 06:35 NW 26 G 35 16.09 Overcast OVC023 9 6 82% 6 75.34 0.0
09 06:15 NW 17 16.09 Overcast FEW020 OVC025 10 7 82% 8 75.31 0.0
09 05:55 NW 17 16.09 Overcast FEW019 BKN028 OVC055 10 7 82% 8 75.29 0.0
09 05:35 W 11 16.09 Mostly Cloudy FEW028 SCT046 BKN060 10 7 82% 9 75.23 0.0
09 05:15 W 9 14.48 Light Rain BKN060 OVC065 10 7 82% 9 75.21 0.0
09 04:55 NW 7 16.09 Overcast FEW043 OVC055 10 7 82% 9 75.23 0.0
09 04:35 Calm 16.09 Light Rain FEW032 SCT040 OVC055 10 6 76% 75.21 0.0
09 04:15 NW 13 16.09 Light Rain FEW039 BKN055 OVC070 11 6 72% 75.26 0.0
09 03:55 NW 13 16.09 Overcast OVC070 11 5 67% 75.26 0.0
09 03:35 N 20 G 31 16.09 Overcast OVC070 11 5 67% 75.23 0.0
09 03:15 N 20 16.09 Overcast SCT075 OVC090 11 4 62% 75.23 0.0
09 02:55 N 17 16.09 Mostly Cloudy FEW031 FEW047 BKN095 11 1 50% 75.21 0.0
09 02:35 NW 13 16.09 Mostly Cloudy FEW033 SCT049 BKN085 11 -1 44% 75.21 0.0
09 02:15 N 20 16.09 Overcast FEW075 OVC085 9 0 54% 6 75.21 0.0
09 01:55 Calm 16.09 Overcast FEW075 OVC085 9 -1 50% 75.18 0.0
09 01:35 Calm 16.09 Overcast OVC090 9 -1 50% 75.18 0.0
09 01:15 Calm 16.09 Overcast FEW038 BKN095 OVC110 8 -2 50% 75.18 0.0
09 00:55 Calm 16.09 Mostly Cloudy SCT035 BKN041 BKN049 7 -2 53% 75.18 0.0
09 00:35 Calm 16.09 Mostly Cloudy SCT038 SCT046 BKN050 7 -2 53% 75.16 0.0
09 00:15 Calm 16.09 Mostly Cloudy SCT034 BKN042 BKN055 9 -3 43% 75.21 0.0
08 23:55 Calm 16.09 Mostly Cloudy SCT033 BKN040 BKN050 8 -2 50% 75.23 0.0
08 23:35 SW 7 16.09 Mostly Cloudy FEW031 SCT039 BKN046 9 -1 50% 8 75.23 0.0
08 23:15 Calm 16.09 Mostly Cloudy FEW029 BKN038 BKN046 11 -3 38% 75.26 0.0
08 22:55 Calm 16.09 Mostly Cloudy SCT026 BKN036 BKN044 13 -4 31% 75.26 0.0
08 22:35 NW 9 16.09 Mostly Cloudy BKN025 BKN041 BKN050 13 -4 31% 75.26 0.0
08 22:15 NW 9 16.09 Mostly Cloudy FEW021 SCT025 BKN044 14 -4 29% 75.26 0.0
08 21:55 NW 15 16.09 Partly Cloudy FEW030 FEW036 SCT041 14 -4 29% 75.26 0.0
08 21:35 NW 17 16.09 Partly Cloudy FEW029 SCT039 15 -4 27% 75.23 0.0
08 21:15 NW 24 G 37 16.09 Fair CLR 16 -3 27% 75.23 0.0
08 20:55 NW 24 G 39 16.09 Fair CLR 16 -3 27% 75.21 0.0
08 20:35 NW 22 G 35 16.09 Fair CLR 17 -2 27% 75.18 0.0
08 20:15 NW 24 G 37 16.09 Fair CLR 18 -2 26% 75.16 0.0
08 19:55 NW 28 16.09 Fair CLR 19 -3 22% 75.13 0.0
08 19:35 NW 31 G 43 16.09 A Few Clouds FEW100 19 -3 22% 75.11 0.0
08 19:15 NW 20 G 37 16.09 Partly Cloudy SCT100 20 -4 20% 75.11 0.0
08 18:55 NW 35 G 48 16.09 A Few Clouds and Breezy FEW110 20 -4 20% 75.11 0.0
08 18:35 W 22 G 35 16.09 Mostly Cloudy BKN110 20 -3 21% 75.11 0.0
08 18:15 W 24 G 39 16.09 Partly Cloudy SCT110 20 -3 21% 75.11 0.0
08 17:55 W 30 16.09 Partly Cloudy SCT100 20 -3 21% 75.11 0.0
08 17:35 W 24 G 37 16.09 Mostly Cloudy BKN100 21 -3 20% 75.11 0.0
08 17:15 NW 24 G 37 16.09 Mostly Cloudy BKN100 21 -3 20% 75.11 0.0
08 16:55 W 20 G 41 16.09 A Few Clouds FEW100 21 -2 21% 75.13 0.0
08 16:35 W 24 16.09 Partly Cloudy SCT100 20 -3 21% 75.13 0.0
08 16:15 W 20 G 33 16.09 Mostly Cloudy BKN100 21 -2 21% 75.16 0.0
08 15:55 NW 19 G 33 16.09 Partly Cloudy SCT100 20 -3 21% 75.16 0.0
08 15:35 W 20 G 37 16.09 A Few Clouds FEW110 21 -3 20% 75.21 0.0
08 15:15 W 15 G 28 16.09 A Few Clouds FEW110 21 -3 20% 75.23 0.0
08 14:55 W 22 16.09 A Few Clouds FEW110 20 -3 21% 75.26 0.0
08 14:35 W 20 G 39 16.09 Partly Cloudy SCT110 20 -4 20% 75.29 0.0
08 14:15 W 24 G 37 16.09 Partly Cloudy FEW095 SCT120 20 -4 20% 75.29 0.0
08 13:55 W 11 16.09 Partly Cloudy SCT095 SCT120 19 -4 21% 75.31 0.0
08 13:35 W 19 G 30 16.09 Partly Cloudy SCT100 19 -4 21% 75.31 0.0
08 13:15 NW 15 G 26 16.09 Partly Cloudy SCT110 19 -4 21% 75.36 0.0
08 12:55 NW 15 16.09 Mostly Cloudy BKN110 19 -4 21% 75.36 0.0
08 12:35 NW 17 G 28 16.09 Partly Cloudy SCT110 19 -4 21% 75.39 0.0
08 12:15 NW 19 G 28 4.83 Fair with Haze CLR 18 -4 22% 75.41 0.0
08 11:55 W 17 16.09 Fair CLR 18 -4 22% 75.44 0.0
08 11:35 W 13 16.09 Fair CLR 17 -4 24% 75.46 0.0
08 11:15 Calm 16.09 Fair CLR 16 -3 27% 75.46 0.0
08 10:55 Vrbl 7 G 20 16.09 Partly Cloudy SCT090 15 -3 29% 75.49 0.0
08 10:35 W 13 16.09 Overcast OVC090 14 -3 31% 75.51 0.0
08 10:15 W 13 16.09 Overcast OVC095 14 -3 31% 75.51 0.0
08 09:55 SW 13 16.09 Overcast OVC095 13 -3 33% 75.54 0.0
08 09:35 SW 17 16.09 Overcast OVC095 13 -2 36% 75.54 0.0
08 09:15 SW 9 16.09 Partly Cloudy SCT095 12 -2 38% 75.57 0.0
08 08:55 W 7 16.09 Partly Cloudy SCT100 11 -2 41% 75.57 0.0
08 08:35 Calm 16.09 Overcast OVC100 9 -1 50% 75.57 0.0
08 08:15 Calm 16.09 Overcast OVC100 8 -2 50% 75.59 0.0
08 07:55 Calm 16.09 Overcast OVC100 7 -2 53% 75.59 0.0
08 07:35 Calm 16.09 Overcast OVC100 6 -2 57% 75.59 0.0
08 07:15 Calm 16.09 Mostly Cloudy BKN100 3 -2 70% 75.59 0.0
08 06:55 Calm 16.09 Fair CLR 2 -3 70% 75.57 0.0
08 06:35 Calm 16.09 Fair CLR 0 -4 75% 75.57 0.0
08 06:15 Calm 16.09 Fair CLR 0 -3 80% 75.57 0.0
08 05:55 Calm 16.09 Fair CLR 0 -4 75% 75.57 0.0
08 05:35 Calm 16.09 A Few Clouds FEW030 FEW041 FEW055 0 -5 69% 75.57 0.0
08 05:15 Calm 16.09 Partly Cloudy SCT031 SCT042 SCT055 0 -5 69% 75.57 0.0
08 04:55 Calm 16.09 Mostly Cloudy BKN031 BKN041 BKN050 2 -5 60% 75.59 0.0
08 04:35 Calm 16.09 Overcast BKN032 BKN040 OVC049 4 -5 52% 75.59 0.0
08 04:15 SW 6 16.09 Mostly Cloudy SCT031 BKN037 BKN043 1 -3 75% 75.59 0.0
08 03:55 Calm 16.09 Mostly Cloudy SCT031 SCT043 BKN055 2 -5 60% 75.59 0.0
08 03:35 Calm 16.09 Mostly Cloudy FEW031 SCT044 BKN120 2 -5 60% 75.59 0.0
08 03:15 Calm 16.09 Mostly Cloudy SCT033 BKN041 BKN050 2 -3 70% 75.59 0.0
08 02:55 Calm 16.09 Mostly Cloudy FEW033 BKN043 BKN050 2 -3 70% 75.59 0.0
08 02:35 Calm 16.09 Overcast FEW032 BKN044 OVC065 2 -3 70% 75.62 0.0
08 02:15 Calm 16.09 Overcast SCT041 BKN046 OVC065 2 -3 70% 75.62 0.0
08 01:55 Calm 16.09 Overcast FEW037 BKN045 OVC065 2 -3 70% 75.62 0.0
08 01:35 Calm 16.09 Overcast FEW035 BKN044 OVC055 1 -3 75% 75.64 0.0
08 01:15 Calm 16.09 Overcast FEW037 BKN045 OVC055 2 -3 70% 75.64 0.0
08 00:55 Calm 16.09 Overcast FEW037 BKN045 OVC050 2 -3 70% 75.64 0.0
08 00:35 Calm 16.09 Overcast FEW035 BKN041 OVC055 2 -3 70% 75.67 0.0
08 00:15 Calm 16.09 Overcast FEW034 BKN042 OVC055 3 -3 65% 75.67 0.0
07 23:55 Calm 16.09 Overcast SCT040 BKN046 OVC050 3 -3 65% 75.67 0.0
07 23:35 Calm 16.09 Mostly Cloudy FEW033 SCT040 BKN047 3 -3 65% 75.69 0.0
07 23:15 Calm 16.09 Overcast FEW035 BKN047 OVC055 4 -4 56% 75.69 0.0
07 22:55 Calm 16.09 Overcast SCT042 BKN050 OVC055 3 -3 65% 75.69 0.0
07 22:35 Calm 16.09 Mostly Cloudy FEW038 SCT044 BKN049 4 -4 56% 75.69 0.0
07 22:15 Calm 16.09 Overcast FEW036 BKN044 OVC055 5 -4 53% 75.69 0.0
07 21:55 Calm 16.09 Overcast SCT036 BKN043 OVC060 7 -4 46% 75.72 0.0
07 21:35 Calm 16.09 Mostly Cloudy FEW037 SCT044 BKN055 7 -4 46% 75.72 0.0
07 21:15 Calm 16.09 Mostly Cloudy FEW041 SCT050 BKN065 9 -3 43% 75.69 0.0
07 20:55 W 6 16.09 Fair CLR 11 -4 35% 75.69 0.0
07 20:35 W 6 16.09 Fair CLR 12 -5 30% 75.67 0.0
07 20:15 W 7 16.09 Fair CLR 12 -5 30% 75.67 0.0
07 19:55 W 13 16.09 Fair CLR 13 -6 26% 75.67 0.0
07 19:35 W 15 16.09 Fair CLR 14 -6 25% 75.67 0.0
07 19:15 W 17 G 31 16.09 Fair CLR 14 -7 23% 75.67 0.0
07 18:55 W 24 16.09 Fair CLR 14 -6 25% 75.67 0.0
07 18:35 W 15 G 26 16.09 A Few Clouds FEW085 14 -6 25% 75.67 0.0
07 18:15 W 15 G 28 16.09 Partly Cloudy SCT090 14 -7 23% 75.69 0.0
07 17:55 W 19 16.09 A Few Clouds FEW090 15 -6 23% 75.69 0.0
07 17:35 NW 26 16.09 Fair CLR 15 -7 21% 75.69 0.0
07 17:15 W 20 G 37 16.09 A Few Clouds FEW085 14 -7 23% 75.72 0.0
07 16:55 NW 19 16.09 A Few Clouds FEW085 14 -7 23% 75.72 0.0
07 16:35 NW 22 16.09 Fair CLR 14 -7 23% 75.72 0.0
07 16:15 W 17 16.09 Fair CLR 14 -8 21% 75.74 0.0
07 15:55 W 15 G 26 16.09 A Few Clouds FEW085 14 -7 23% 75.74 0.0
07 15:35 W 19 G 28 16.09 A Few Clouds FEW085 14 -7 23% 75.77 0.0
07 15:15 NW 24 G 33 16.09 A Few Clouds FEW085 13 -8 23% 75.79 0.0
07 14:55 NW 15 G 30 16.09 Fair CLR 13 -8 23% 75.79 0.0
07 14:35 W 20 16.09 Fair CLR 12 -8 24% 75.82 0.0
07 14:15 W 22 16.09 Fair CLR 13 -8 23% 75.82 0.0
07 13:55 W 20 16.09 Fair CLR 12 -8 24% 75.84 0.0
07 13:35 NW 19 16.09 Fair CLR 12 -8 24% 75.84 0.0
07 13:15 NW 17 16.09 Fair CLR 12 -8 24% 75.87 0.0
07 12:55 NW 13 G 28 16.09 Fair CLR 11 -9 24% 75.87 0.0
07 12:35 NW 20 16.09 Fair CLR 12 -8 24% 75.9 0.0
07 12:15 N 13 16.09 Fair CLR 11 -9 24% 75.9 0.0
07 11:55 N 13 16.09 Fair CLR 11 -8 26% 75.9 0.0
07 11:35 W 13 16.09 Fair CLR 10 -8 28% 8 75.92 0.0
07 11:15 W 15 16.09 Fair CLR 10 -7 30% 8 75.95 0.0
Date Time (cdt) Wind (kph) Vis. (km) Weather Sky Cond. Air Dwpt Max. Min. Relative Humidity Wind Chill (°C) Heat Index (°C) altimeter (cm) sea level (mb) 1 hr 3 hr 6 hr
6 hour
Temperature (ºC) Pressure Precipitation (cm)